Time;durP1;ratioP1;P1;durP2;ratioP2;P2;SDS_P1;SDS_P2;PMS_P1;PMS_P2;Temp;Humidity;BMP_temperature;BMP_pressure;BME280_temperature;BME280_humidity;BME280_pressure;Samples;Min_cycle;Max_cycle;Signal;HPM_P1;HPM_P2
2021/04/01 00:01:48;;;;;;;27.90;24.90;;;9.90;99.90;;;;;;5055761;28;20459;-71
2021/04/01 00:04:15;;;;;;;37.60;26.47;;;9.80;99.90;;;;;;5060125;28;20470;-71
2021/04/01 00:06:41;;;;;;;33.97;28.20;;;9.90;99.90;;;;;;5052679;28;20990;-71
2021/04/01 00:09:07;;;;;;;48.60;28.13;;;9.90;99.90;;;;;;5052268;28;20471;-72
2021/04/01 00:11:34;;;;;;;43.73;31.33;;;9.80;99.90;;;;;;5053845;28;20491;-71
2021/04/01 00:14:04;;;;;;;36.83;28.50;;;9.90;99.90;;;;;;5056489;28;20544;-71
2021/04/01 00:16:32;;;;;;;36.70;25.80;;;10.00;99.90;;;;;;5057170;28;20615;-71
2021/04/01 00:19:00;;;;;;;28.23;25.23;;;9.90;99.90;;;;;;5054571;28;20481;-71
2021/04/01 00:21:26;;;;;;;31.17;27.00;;;9.90;99.90;;;;;;5058352;28;20474;-71
2021/04/01 00:23:53;;;;;;;28.60;25.60;;;9.90;99.90;;;;;;5053478;28;20472;-71
2021/04/01 00:26:19;;;;;;;26.20;22.90;;;9.80;99.90;;;;;;5058755;28;20501;-71
2021/04/01 00:28:46;;;;;;;27.47;24.60;;;9.80;99.90;;;;;;5057320;28;20504;-71
2021/04/01 00:31:13;;;;;;;28.60;24.93;;;9.70;99.90;;;;;;5058138;28;20867;-71
2021/04/01 00:33:40;;;;;;;33.70;27.83;;;9.60;99.90;;;;;;5058746;28;20469;-72
2021/04/01 00:36:07;;;;;;;36.43;28.67;;;9.30;99.90;;;;;;5058958;28;20465;-71
2021/04/01 00:38:33;;;;;;;36.73;29.00;;;9.20;99.90;;;;;;5064106;28;20494;-71
2021/04/01 00:41:00;;;;;;;38.20;29.33;;;9.30;99.90;;;;;;5060836;28;20520;-71
2021/04/01 00:43:26;;;;;;;52.30;35.13;;;9.30;99.90;;;;;;5065815;28;20519;-71
2021/04/01 00:45:53;;;;;;;47.90;32.83;;;9.50;99.90;;;;;;5058888;28;20486;-71
2021/04/01 00:48:22;;;;;;;53.63;35.37;;;9.60;99.90;;;;;;5059974;28;20452;-71
2021/04/01 00:50:48;;;;;;;46.50;34.60;;;9.90;99.90;;;;;;5055250;28;20478;-71
2021/04/01 00:53:14;;;;;;;44.80;31.90;;;10.10;99.90;;;;;;5056969;28;20524;-71
2021/04/01 00:55:41;;;;;;;35.27;28.27;;;10.20;99.90;;;;;;5060495;28;20499;-71
2021/04/01 00:58:08;;;;;;;42.90;30.77;;;10.20;99.90;;;;;;5058461;28;20532;-71
2021/04/01 01:00:35;;;;;;;34.70;27.43;;;10.20;99.90;;;;;;5060855;28;20502;-71
2021/04/01 01:03:03;;;;;;;38.27;30.07;;;10.20;99.90;;;;;;5055828;28;20505;-71
2021/04/01 01:05:32;;;;;;;38.53;27.33;;;10.30;99.90;;;;;;5059156;28;20493;-71
2021/04/01 01:08:00;;;;;;;37.47;28.87;;;10.30;99.90;;;;;;5058840;28;20457;-71
2021/04/01 01:10:28;;;;;;;33.00;27.40;;;10.30;99.90;;;;;;5055115;28;20463;-71
2021/04/01 01:12:55;;;;;;;40.57;27.90;;;10.30;99.90;;;;;;5060333;28;20977;-71
2021/04/01 01:15:23;;;;;;;32.70;27.13;;;10.30;99.90;;;;;;5059812;28;20474;-71
2021/04/01 01:17:50;;;;;;;31.83;27.00;;;10.30;99.90;;;;;;5058780;28;20462;-71
2021/04/01 01:20:17;;;;;;;37.97;27.70;;;10.30;99.90;;;;;;5051022;28;20491;-72
2021/04/01 01:22:48;;;;;;;40.47;27.97;;;10.30;99.90;;;;;;5057795;28;20521;-72
2021/04/01 01:25:19;;;;;;;30.27;27.17;;;10.20;99.90;;;;;;5062171;28;20531;-71
2021/04/01 01:27:47;;;;;;;30.13;26.57;;;10.20;99.90;;;;;;5057831;28;20467;-72
2021/04/01 01:30:17;;;;;;;30.00;26.80;;;10.10;99.90;;;;;;5050864;28;20497;-71
2021/04/01 01:32:46;;;;;;;32.93;27.30;;;10.00;99.90;;;;;;5058665;28;20462;-72
2021/04/01 01:35:19;;;;;;;32.10;26.97;;;10.00;99.90;;;;;;5063085;28;20468;-72
2021/04/01 01:37:50;;;;;;;32.10;28.10;;;9.90;99.90;;;;;;5061318;28;20883;-71
2021/04/01 01:40:17;;;;;;;33.77;27.83;;;9.90;99.90;;;;;;5049100;28;20536;-71
2021/04/01 01:42:43;;;;;;;44.30;31.63;;;9.90;99.90;;;;;;5057174;28;20485;-71
2021/04/01 01:45:11;;;;;;;35.93;28.80;;;9.80;99.90;;;;;;5057878;28;20809;-71
2021/04/01 01:47:37;;;;;;;35.47;28.30;;;9.90;99.90;;;;;;5055799;28;20471;-72
2021/04/01 01:50:05;;;;;;;40.37;30.40;;;9.90;99.90;;;;;;5059671;28;20467;-71
2021/04/01 01:52:32;;;;;;;38.83;29.70;;;9.90;99.90;;;;;;5059867;28;20463;-71
2021/04/01 01:54:58;;;;;;;35.13;28.17;;;9.90;99.90;;;;;;5055649;28;20506;-71
2021/04/01 01:57:26;;;;;;;42.27;29.43;;;9.90;99.90;;;;;;5056521;28;20470;-71
2021/04/01 01:59:54;;;;;;;41.70;30.70;;;10.00;99.90;;;;;;5056627;28;20546;-72
2021/04/01 02:02:21;;;;;;;40.30;31.47;;;10.10;99.90;;;;;;5057219;28;20951;-72
2021/04/01 02:04:48;;;;;;;37.03;30.43;;;10.10;99.90;;;;;;5057206;28;20528;-71
2021/04/01 02:07:14;;;;;;;41.27;30.47;;;10.10;99.90;;;;;;5050967;28;20466;-72
2021/04/01 02:09:47;;;;;;;44.60;33.20;;;10.00;99.90;;;;;;5061068;28;20519;-71
2021/04/01 02:12:14;;;;;;;45.90;31.30;;;9.90;99.90;;;;;;5047347;28;20987;-72
2021/04/01 02:14:42;;;;;;;45.97;34.17;;;9.90;99.90;;;;;;5052047;28;20556;-72
2021/04/01 02:17:09;;;;;;;42.13;31.80;;;9.90;99.90;;;;;;5058547;28;20458;-71
2021/04/01 02:19:37;;;;;;;52.27;33.67;;;9.90;99.90;;;;;;5050050;28;20494;-71
2021/04/01 02:22:03;;;;;;;38.17;31.40;;;9.80;99.90;;;;;;5057322;28;20466;-71
2021/04/01 02:24:30;;;;;;;53.07;35.93;;;9.80;99.90;;;;;;5054423;28;20502;-71
2021/04/01 02:26:59;;;;;;;43.27;33.47;;;9.90;99.90;;;;;;5052924;28;20554;-72
2021/04/01 02:29:25;;;;;;;42.70;32.00;;;9.90;99.90;;;;;;5056395;28;20456;-72
2021/04/01 02:31:53;;;;;;;48.10;34.43;;;10.00;99.90;;;;;;5059112;28;20471;-72
2021/04/01 02:34:20;;;;;;;41.30;30.83;;;10.00;99.90;;;;;;5054835;28;21095;-71
2021/04/01 02:36:46;;;;;;;38.27;32.87;;;10.00;99.90;;;;;;5053050;28;20649;-71
2021/04/01 02:39:13;;;;;;;41.20;31.17;;;10.10;99.90;;;;;;5054969;28;20495;-71
2021/04/01 02:41:41;;;;;;;39.30;31.27;;;10.10;99.90;;;;;;5057537;28;20471;-71
2021/04/01 02:44:08;;;;;;;33.73;28.77;;;10.10;99.90;;;;;;5058911;28;20815;-71
2021/04/01 02:46:34;;;;;;;42.13;32.10;;;10.10;99.90;;;;;;5057416;28;20515;-71
2021/04/01 02:49:02;;;;;;;36.60;29.30;;;10.10;99.90;;;;;;5054951;28;20471;-71
2021/04/01 02:51:28;;;;;;;32.83;29.33;;;10.20;99.90;;;;;;5054633;28;20464;-71
2021/04/01 02:53:54;;;;;;;31.50;28.27;;;10.20;99.90;;;;;;5051367;28;20548;-71
2021/04/01 02:56:21;;;;;;;47.73;30.87;;;10.20;99.90;;;;;;5060679;28;20468;-72
2021/04/01 02:58:47;;;;;;;35.93;28.97;;;10.20;99.90;;;;;;5053155;28;20487;-71
2021/04/01 03:01:14;;;;;;;35.03;28.40;;;10.20;99.90;;;;;;5056300;28;20473;-71
2021/04/01 03:03:42;;;;;;;37.13;29.97;;;10.10;99.90;;;;;;5057334;28;20468;-71
2021/04/01 03:06:10;;;;;;;31.97;28.57;;;10.10;99.90;;;;;;5057616;28;21009;-71
2021/04/01 03:08:38;;;;;;;38.73;30.70;;;10.10;99.90;;;;;;5056209;28;20542;-71
2021/04/01 03:11:04;;;;;;;42.70;30.20;;;10.10;99.90;;;;;;5060122;28;20499;-71
2021/04/01 03:13:30;;;;;;;44.20;33.10;;;10.10;99.90;;;;;;5054267;28;20491;-72
2021/04/01 03:15:56;;;;;;;35.13;30.63;;;10.10;99.90;;;;;;5060755;28;20477;-72
2021/04/01 03:18:25;;;;;;;37.30;29.87;;;10.20;99.90;;;;;;5054389;28;20509;-71
2021/04/01 03:20:51;;;;;;;47.23;31.63;;;10.20;99.90;;;;;;5051958;28;21011;-72
2021/04/01 03:23:20;;;;;;;38.90;29.80;;;10.00;99.90;;;;;;5057175;28;20463;-72
2021/04/01 03:25:47;;;;;;;42.77;33.73;;;10.00;99.90;;;;;;5056225;28;20482;-72
2021/04/01 03:28:14;;;;;;;39.87;32.00;;;9.90;99.90;;;;;;5056723;28;20498;-72
2021/04/01 03:30:46;;;;;;;43.43;30.37;;;9.90;99.90;;;;;;5055081;28;20461;-71
2021/04/01 03:33:12;;;;;;;40.20;30.97;;;9.90;99.90;;;;;;5054102;28;20498;-71
2021/04/01 03:35:38;;;;;;;42.60;31.47;;;9.90;99.90;;;;;;5054798;28;20480;-71
2021/04/01 03:38:06;;;;;;;44.13;31.83;;;9.90;99.90;;;;;;5053730;28;20984;-71
2021/04/01 03:40:34;;;;;;;36.03;31.60;;;9.90;99.90;;;;;;5054874;28;20506;-72
2021/04/01 03:43:00;;;;;;;43.67;33.17;;;9.80;99.90;;;;;;5047879;28;20566;-71
2021/04/01 03:45:27;;;;;;;44.03;33.23;;;9.80;99.90;;;;;;5053552;28;20490;-71
2021/04/01 03:47:54;;;;;;;43.97;34.33;;;9.90;99.90;;;;;;5052119;28;20999;-71
2021/04/01 03:50:21;;;;;;;48.70;34.43;;;9.90;99.90;;;;;;5053382;28;20470;-71
2021/04/01 03:52:47;;;;;;;51.93;37.20;;;9.90;99.90;;;;;;5058811;28;20512;-71
2021/04/01 03:58:10;;;;;;;46.40;35.77;;;9.90;99.90;;;;;;5055090;28;21047;-71
2021/04/01 04:00:37;;;;;;;43.13;34.03;;;9.80;99.90;;;;;;5063096;28;20498;-71
2021/04/01 04:03:13;;;;;;;44.10;35.13;;;9.90;99.90;;;;;;5059671;28;20456;-71
2021/04/01 04:05:51;;;;;;;50.53;35.67;;;9.90;99.90;;;;;;5054819;28;20473;-71
2021/04/01 04:08:46;;;;;;;41.73;33.30;;;10.00;99.90;;;;;;5061570;28;20461;-71
2021/04/01 04:11:25;;;;;;;57.43;37.27;;;10.00;99.90;;;;;;5052511;28;20542;-71
2021/04/01 04:13:55;;;;;;;45.73;33.57;;;10.00;99.90;;;;;;5058468;28;20546;-71
2021/04/01 04:16:21;;;;;;;46.90;33.20;;;9.90;99.90;;;;;;5060409;28;20451;-71
2021/04/01 04:18:48;;;;;;;39.03;31.70;;;9.80;99.90;;;;;;5055815;28;20936;-71
2021/04/01 04:21:16;;;;;;;38.37;32.17;;;9.80;99.90;;;;;;5055129;28;20466;-71
2021/04/01 04:23:45;;;;;;;44.07;34.17;;;9.70;99.90;;;;;;5060362;28;20460;-71
2021/04/01 04:26:12;;;;;;;45.43;35.37;;;9.70;99.90;;;;;;5053652;28;20482;-71
2021/04/01 04:28:39;;;;;;;53.37;37.47;;;9.70;99.90;;;;;;5065340;28;20505;-71
2021/04/01 04:31:08;;;;;;;44.20;32.27;;;9.70;99.90;;;;;;5059107;28;20463;-71
2021/04/01 04:33:35;;;;;;;43.93;34.77;;;9.60;99.90;;;;;;5051557;28;20509;-71
2021/04/01 04:36:02;;;;;;;53.40;37.70;;;9.70;99.90;;;;;;5057662;28;21015;-71
2021/04/01 04:38:29;;;;;;;40.77;33.83;;;9.70;99.90;;;;;;5055684;28;20459;-71
2021/04/01 04:40:57;;;;;;;45.37;34.37;;;9.80;99.90;;;;;;5051648;28;21151;-71
2021/04/01 04:43:25;;;;;;;44.33;35.07;;;9.70;99.90;;;;;;5064957;28;20460;-71
2021/04/01 04:45:51;;;;;;;41.33;34.00;;;9.70;99.90;;;;;;5059613;28;20969;-71
2021/04/01 04:48:18;;;;;;;53.30;34.50;;;9.70;99.90;;;;;;5051716;28;20467;-71
2021/04/01 04:50:45;;;;;;;44.00;34.63;;;9.60;99.90;;;;;;5056796;28;21408;-71
2021/04/01 04:53:11;;;;;;;52.30;33.20;;;9.60;99.90;;;;;;5061096;28;20463;-71
2021/04/01 04:55:38;;;;;;;40.67;33.87;;;9.60;99.90;;;;;;5056290;28;20883;-71
2021/04/01 04:58:09;;;;;;;49.53;36.73;;;9.60;99.90;;;;;;5051754;28;20549;-72
2021/04/01 05:05:55;;;;;;;39.43;32.70;;;9.50;99.90;;;;;;5060864;28;20461;-71
2021/04/01 05:08:22;;;;;;;45.20;32.80;;;9.50;99.90;;;;;;5050162;28;20460;-71
2021/04/01 05:10:49;;;;;;;49.93;34.60;;;9.40;99.90;;;;;;5062997;28;21017;-71
2021/04/01 05:13:16;;;;;;;45.60;36.33;;;9.40;99.90;;;;;;5055369;28;20838;-72
2021/04/01 05:15:47;;;;;;;53.60;34.10;;;9.50;99.90;;;;;;5064409;28;20503;-71
2021/04/01 05:18:15;;;;;;;49.10;34.83;;;9.50;99.90;;;;;;5052887;28;20943;-71
2021/04/01 05:20:42;;;;;;;44.03;34.30;;;9.50;99.90;;;;;;5060719;28;20498;-71
2021/04/01 05:23:26;;;;;;;39.37;32.77;;;9.50;99.90;;;;;;5052257;28;20457;-71
2021/04/01 05:25:53;;;;;;;44.60;33.03;;;9.50;99.90;;;;;;5050317;28;20490;-71
2021/04/01 05:28:22;;;;;;;38.53;32.37;;;9.50;99.90;;;;;;5054820;28;20545;-71
2021/04/01 05:30:50;;;;;;;44.40;33.00;;;9.40;99.90;;;;;;5060039;28;20466;-71
2021/04/01 05:33:17;;;;;;;41.17;32.93;;;9.30;99.90;;;;;;5052619;28;20681;-71
2021/04/01 05:35:44;;;;;;;66.00;43.10;;;9.20;99.90;;;;;;5055923;28;21019;-71
2021/04/01 05:38:11;;;;;;;58.00;43.40;;;9.20;99.90;;;;;;5058234;28;20515;-71
2021/04/01 05:40:37;;;;;;;62.13;43.07;;;9.30;99.90;;;;;;5057227;28;20494;-71
2021/04/01 05:43:07;;;;;;;49.80;40.27;;;9.50;99.90;;;;;;5050181;28;20822;-71
2021/04/01 05:45:41;;;;;;;46.53;36.00;;;9.60;99.90;;;;;;5059835;28;20972;-71
2021/04/01 05:48:17;;;;;;;44.53;33.90;;;9.50;99.90;;;;;;5058379;28;20461;-71
2021/04/01 05:50:57;;;;;;;40.23;33.30;;;9.50;99.90;;;;;;5052810;28;20470;-71
2021/04/01 05:59:26;;;;;;;53.93;35.00;;;9.20;99.90;;;;;;5056713;28;20504;-71
2021/04/01 06:02:02;;;;;;;53.73;38.20;;;9.20;99.90;;;;;;5057455;28;20957;-71
2021/04/01 06:04:36;;;;;;;53.50;37.70;;;9.30;99.90;;;;;;5062859;28;20457;-71
2021/04/01 06:07:06;;;;;;;33.60;30.30;;;9.40;99.90;;;;;;5056819;28;20451;-71
2021/04/01 06:09:38;;;;;;;39.73;30.57;;;9.40;99.90;;;;;;5049038;28;20462;-71
2021/04/01 06:12:05;;;;;;;44.47;32.03;;;9.40;99.90;;;;;;5055938;28;20887;-71
2021/04/01 06:14:58;;;;;;;52.87;39.13;;;9.40;99.90;;;;;;5052990;28;20496;-71
2021/04/01 06:17:26;;;;;;;50.63;39.53;;;9.40;99.90;;;;;;5057510;28;20830;-71
2021/04/01 06:19:55;;;;;;;63.67;42.07;;;9.50;99.90;;;;;;5054411;28;20502;-71
2021/04/01 06:22:22;;;;;;;60.80;40.73;;;9.60;99.90;;;;;;5054466;28;20498;-71
2021/04/01 06:24:51;;;;;;;57.33;40.60;;;9.80;99.90;;;;;;5057627;28;20487;-71
2021/04/01 06:27:22;;;;;;;57.77;42.23;;;9.90;99.90;;;;;;5053332;28;20496;-71
2021/04/01 06:32:39;;;;;;;56.70;43.40;;;10.20;99.90;;;;;;5053397;28;20518;-72
2021/04/01 06:35:19;;;;;;;53.57;40.50;;;10.30;99.90;;;;;;5057184;28;20455;-72
2021/04/01 06:38:02;;;;;;;62.90;42.70;;;10.40;99.90;;;;;;5053086;28;21043;-71
2021/04/01 06:40:37;;;;;;;70.13;43.83;;;10.60;99.90;;;;;;5053811;28;20552;-71
2021/04/01 06:43:10;;;;;;;50.93;40.30;;;10.80;99.90;;;;;;5055538;28;20465;-71
2021/04/01 06:45:39;;;;;;;62.47;42.90;;;10.90;99.90;;;;;;5060673;28;20463;-72
2021/04/01 06:48:12;;;;;;;56.57;41.43;;;11.00;99.90;;;;;;5055612;28;20467;-72
2021/04/01 06:50:39;;;;;;;59.97;42.37;;;11.10;99.90;;;;;;5054195;28;20515;-72
2021/04/01 06:53:12;;;;;;;58.80;41.67;;;11.40;99.90;;;;;;5051516;28;20463;-71
2021/04/01 06:55:47;;;;;;;61.57;42.60;;;11.50;99.90;;;;;;5057723;28;20463;-72
2021/04/01 06:58:30;;;;;;;42.40;35.17;;;11.70;99.90;;;;;;5059051;28;20500;-72
2021/04/01 07:01:04;;;;;;;54.80;40.07;;;11.80;99.90;;;;;;5058364;28;20701;-72
2021/04/01 07:03:38;;;;;;;64.30;41.80;;;11.80;99.90;;;;;;5053404;28;20494;-72
2021/04/01 07:06:10;;;;;;;61.37;41.23;;;11.90;99.90;;;;;;5050320;28;20459;-71
2021/04/01 07:08:43;;;;;;;55.10;42.97;;;12.00;99.90;;;;;;5050577;28;20549;-71
2021/04/01 07:11:24;;;;;;;58.93;42.40;;;12.10;99.90;;;;;;5050228;28;20503;-72
2021/04/01 07:13:54;;;;;;;64.00;44.23;;;12.30;99.90;;;;;;5057524;28;20485;-71
2021/04/01 07:16:29;;;;;;;58.23;42.73;;;12.30;99.90;;;;;;5054973;28;20502;-72
2021/04/01 07:36:03;;;;;;;61.53;40.47;;;13.40;99.90;;;;;;5057412;28;20499;-71
2021/04/01 07:47:02;;;;;;;51.67;40.90;;;13.80;99.90;;;;;;5054440;28;20474;-72
2021/04/01 07:49:30;;;;;;;52.90;39.30;;;14.00;99.90;;;;;;5053662;28;20992;-71
2021/04/01 07:52:02;;;;;;;57.17;41.17;;;14.10;99.90;;;;;;5051416;28;20452;-71
2021/04/01 07:54:39;;;;;;;58.00;42.63;;;14.30;99.90;;;;;;5044701;28;20463;-71
2021/04/01 07:57:48;;;;;;;58.43;43.07;;;14.40;99.90;;;;;;5049770;28;20455;-71
2021/04/01 08:00:20;;;;;;;64.77;43.83;;;14.60;99.90;;;;;;5050457;28;20557;-72
2021/04/01 08:03:19;;;;;;;62.47;44.40;;;14.80;99.90;;;;;;5056994;28;20517;-72
2021/04/01 08:05:46;;;;;;;59.07;42.63;;;14.90;99.90;;;;;;5050122;28;20470;-72
2021/04/01 08:08:20;;;;;;;61.20;43.20;;;15.10;99.90;;;;;;5052769;28;20463;-72
2021/04/01 08:10:49;;;;;;;66.67;43.23;;;15.30;99.90;;;;;;5049730;28;21226;-71
2021/04/01 08:13:20;;;;;;;63.97;43.60;;;15.50;99.90;;;;;;5056279;28;20469;-72
2021/04/01 08:15:52;;;;;;;64.53;44.67;;;15.50;99.90;;;;;;5051861;28;21104;-72
2021/04/01 08:18:23;;;;;;;62.20;42.90;;;15.70;99.90;;;;;;5053188;28;20963;-72
2021/04/01 08:20:52;;;;;;;65.70;43.37;;;15.90;99.90;;;;;;5049730;28;20502;-72
2021/04/01 08:23:21;;;;;;;61.50;41.50;;;16.00;99.90;;;;;;5050313;28;20530;-72
2021/04/01 08:25:55;;;;;;;68.00;43.17;;;16.10;99.90;;;;;;5050944;28;20937;-72
2021/04/01 08:33:59;;;;;;;76.53;45.00;;;16.50;99.90;;;;;;5047678;28;20520;-72
2021/04/01 08:36:28;;;;;;;68.70;45.30;;;16.70;99.90;;;;;;5050984;28;20473;-71
2021/04/01 08:38:55;;;;;;;60.07;41.43;;;16.90;99.90;;;;;;5054515;28;20469;-72
2021/04/01 08:41:33;;;;;;;60.30;40.90;;;17.00;99.90;;;;;;5051548;28;20483;-71
2021/04/01 08:44:30;;;;;;;68.57;42.33;;;17.10;99.90;;;;;;5050806;28;20466;-71
2021/04/01 08:47:17;;;;;;;61.10;39.80;;;17.20;99.90;;;;;;5060000;28;20462;-72
2021/04/01 08:49:51;;;;;;;57.80;38.87;;;17.40;99.90;;;;;;5054054;28;20455;-72
2021/04/01 08:52:56;;;;;;;62.97;39.90;;;17.60;99.90;;;;;;5057100;28;20467;-72
2021/04/01 08:55:31;;;;;;;74.60;43.90;;;17.60;99.90;;;;;;5057218;28;20455;-72
2021/04/01 08:58:04;;;;;;;68.17;43.40;;;17.70;99.90;;;;;;5063188;28;20466;-72
2021/04/01 09:00:32;;;;;;;56.73;39.70;;;17.90;99.90;;;;;;5053472;28;20981;-72
2021/04/01 09:03:00;;;;;;;58.57;40.43;;;18.00;99.90;;;;;;5055996;28;20459;-71
2021/04/01 09:05:27;;;;;;;65.40;38.80;;;18.20;99.90;;;;;;5059971;28;20459;-71
2021/04/01 09:07:59;;;;;;;68.43;39.80;;;18.40;99.90;;;;;;5053141;28;20467;-71
2021/04/01 09:10:29;;;;;;;55.20;39.37;;;18.50;99.90;;;;;;5058578;28;20466;-71
2021/04/01 09:13:00;;;;;;;59.70;38.47;;;18.80;99.90;;;;;;5058949;28;20489;-71
2021/04/01 09:15:36;;;;;;;68.03;38.67;;;18.80;99.90;;;;;;5047216;28;21000;-71
2021/04/01 09:18:05;;;;;;;56.10;35.90;;;18.80;99.90;;;;;;5057063;28;20542;-71
2021/04/01 09:20:32;;;;;;;63.10;35.43;;;18.90;99.90;;;;;;5055660;28;20487;-71
2021/04/01 09:23:04;;;;;;;54.17;36.03;;;18.90;99.90;;;;;;5053311;28;20459;-71
2021/04/01 09:25:36;;;;;;;49.47;34.63;;;19.10;99.90;;;;;;5052785;28;20475;-72
2021/04/01 09:28:06;;;;;;;64.83;36.80;;;19.30;99.90;;;;;;5049969;28;20478;-72
2021/04/01 09:30:36;;;;;;;49.43;34.93;;;20.20;99.90;;;;;;5056657;28;20458;-72
2021/04/01 09:33:10;;;;;;;54.70;37.27;;;20.70;99.90;;;;;;5059300;28;20466;-72
2021/04/01 09:35:37;;;;;;;53.93;35.13;;;21.10;99.90;;;;;;5057513;28;20494;-71
2021/04/01 09:38:10;;;;;;;50.97;35.77;;;21.30;99.90;;;;;;5051001;28;20989;-72
2021/04/01 09:40:39;;;;;;;56.30;36.00;;;21.90;99.90;;;;;;5054646;28;20903;-72
2021/04/01 09:43:12;;;;;;;57.90;34.03;;;22.30;99.90;;;;;;5053102;28;20473;-71
2021/04/01 09:45:40;;;;;;;54.53;33.80;;;22.00;99.90;;;;;;5048445;28;20514;-72
2021/04/01 09:48:09;;;;;;;51.57;34.50;;;22.00;99.90;;;;;;5056415;28;20466;-72
2021/04/01 09:50:38;;;;;;;49.57;33.70;;;22.10;99.90;;;;;;5059835;28;20471;-72
2021/04/01 09:53:09;;;;;;;48.47;32.30;;;22.30;99.90;;;;;;5056380;28;20460;-72
2021/04/01 09:55:40;;;;;;;53.57;35.03;;;22.40;99.90;;;;;;5056368;28;20467;-72
2021/04/01 09:58:23;;;;;;;47.47;32.63;;;22.00;99.90;;;;;;5052164;28;20949;-72
2021/04/01 10:01:10;;;;;;;64.50;35.10;;;22.00;99.90;;;;;;5057320;28;21049;-72
2021/04/01 10:03:48;;;;;;;52.80;35.00;;;22.00;99.90;;;;;;5055049;28;20871;-72
2021/04/01 10:06:34;;;;;;;53.50;34.27;;;22.10;99.90;;;;;;5050824;28;20466;-72
2021/04/01 10:09:15;;;;;;;54.30;34.60;;;22.20;99.90;;;;;;5055455;28;20459;-72
2021/04/01 10:11:47;;;;;;;57.20;36.07;;;22.10;99.90;;;;;;5048951;28;20483;-71
2021/04/01 10:14:14;;;;;;;52.20;33.83;;;22.20;99.90;;;;;;5053414;28;20455;-72
2021/04/01 10:16:54;;;;;;;56.00;35.47;;;22.20;99.90;;;;;;5051188;28;20471;-72
2021/04/01 10:19:25;;;;;;;57.03;35.73;;;22.40;99.90;;;;;;5054448;28;20460;-72
2021/04/01 10:21:52;;;;;;;57.73;36.87;;;22.60;99.90;;;;;;5048704;28;20514;-72
2021/04/01 10:24:27;;;;;;;59.83;38.83;;;23.00;99.90;;;;;;5053926;28;20459;-72
2021/04/01 10:27:00;;;;;;;50.13;33.03;;;23.20;99.90;;;;;;5051299;28;21007;-72
2021/04/01 10:29:39;;;;;;;48.20;31.97;;;23.20;99.40;;;;;;5056014;28;20558;-72
2021/04/01 10:32:07;;;;;;;53.60;36.50;;;23.10;98.60;;;;;;5052303;28;20517;-72
2021/04/01 10:34:36;;;;;;;53.90;32.60;;;23.10;98.90;;;;;;5051535;28;20462;-72
2021/04/01 10:37:08;;;;;;;55.10;34.40;;;22.90;99.40;;;;;;5054346;28;20571;-72
2021/04/01 10:39:36;;;;;;;56.27;32.40;;;23.20;99.10;;;;;;5044058;28;20488;-72
2021/04/01 10:42:04;;;;;;;45.77;30.50;;;22.90;97.80;;;;;;5059935;28;20466;-72
2021/04/01 10:44:32;;;;;;;49.53;30.63;;;22.90;98.40;;;;;;5048849;28;20462;-72
2021/04/01 10:47:00;;;;;;;47.17;30.77;;;22.90;97.50;;;;;;5053099;28;20463;-72
2021/04/01 10:49:29;;;;;;;48.80;31.63;;;23.30;97.70;;;;;;5051329;28;20858;-71
2021/04/01 10:51:57;;;;;;;44.87;29.80;;;23.40;98.10;;;;;;5058775;28;20540;-72
2021/04/01 10:54:27;;;;;;;39.40;26.67;;;23.80;96.90;;;;;;5054777;28;20517;-72
2021/04/01 10:56:55;;;;;;;46.87;31.50;;;23.80;96.10;;;;;;5052390;28;20500;-72
2021/04/01 10:59:37;;;;;;;42.80;30.27;;;23.90;96.40;;;;;;5045078;28;20974;-72
2021/04/01 11:02:10;;;;;;;50.53;31.80;;;24.30;96.20;;;;;;5048704;28;20498;-72
2021/04/01 11:04:39;;;;;;;48.70;30.70;;;23.90;95.60;;;;;;5047890;28;20472;-72
2021/04/01 11:07:07;;;;;;;47.50;31.93;;;24.00;96.30;;;;;;5049675;28;20813;-72
2021/04/01 11:09:35;;;;;;;57.83;32.53;;;24.50;95.60;;;;;;5051076;28;20937;-72
2021/04/01 11:12:14;;;;;;;51.60;33.00;;;24.60;94.70;;;;;;5059696;28;20494;-72
2021/04/01 11:14:44;;;;;;;49.30;33.37;;;24.10;95.50;;;;;;5051143;28;20456;-72
2021/04/01 11:17:13;;;;;;;54.07;31.67;;;24.10;95.80;;;;;;5053493;28;20466;-72
2021/04/01 11:19:40;;;;;;;48.37;32.40;;;23.90;95.40;;;;;;5057249;28;20482;-72
2021/04/01 11:22:09;;;;;;;44.90;31.00;;;24.50;94.80;;;;;;5055650;28;20462;-72
2021/04/01 11:24:37;;;;;;;50.10;33.00;;;24.90;94.10;;;;;;5051908;28;20508;-72
2021/04/01 11:27:11;;;;;;;40.00;29.97;;;24.40;93.80;;;;;;5048842;28;20974;-72
2021/04/01 11:29:40;;;;;;;51.73;32.63;;;24.40;95.30;;;;;;5055590;28;20464;-73
2021/04/01 11:32:15;;;;;;;46.63;33.33;;;24.40;94.20;;;;;;5052889;28;20455;-72
2021/04/01 11:34:44;;;;;;;52.90;31.47;;;25.10;93.80;;;;;;5051084;28;20478;-72
2021/04/01 11:37:16;;;;;;;47.73;34.67;;;25.40;93.90;;;;;;5052544;28;20463;-72
2021/04/01 11:39:43;;;;;;;53.30;32.13;;;25.40;92.60;;;;;;5055781;28;20479;-72
2021/04/01 11:42:11;;;;;;;49.50;31.80;;;25.20;92.80;;;;;;5052325;28;20470;-72
2021/04/01 11:44:38;;;;;;;49.37;33.30;;;24.60;93.10;;;;;;5049604;28;20914;-72
2021/04/01 11:47:16;;;;;;;45.17;33.30;;;24.10;93.40;;;;;;5056244;28;20459;-72
2021/04/01 11:49:43;;;;;;;50.47;33.43;;;23.80;93.90;;;;;;5048610;28;20468;-72
2021/04/01 11:52:12;;;;;;;51.43;34.87;;;23.90;93.90;;;;;;5048870;28;20464;-72
2021/04/01 11:54:38;;;;;;;53.13;35.00;;;24.20;93.50;;;;;;5057747;28;20471;-72
2021/04/01 11:57:16;;;;;;;58.20;31.13;;;24.70;92.20;;;;;;5053307;28;20569;-72
2021/04/01 11:59:54;;;;;;;48.63;33.03;;;24.50;91.80;;;;;;5055046;28;20490;-72
2021/04/01 12:02:23;;;;;;;51.07;34.37;;;25.00;91.30;;;;;;5057311;28;20495;-71
2021/04/01 12:04:52;;;;;;;48.77;34.47;;;24.90;92.10;;;;;;5051687;28;20953;-72
2021/04/01 12:07:19;;;;;;;52.90;35.67;;;24.40;92.30;;;;;;5055436;28;20456;-72
2021/04/01 12:09:47;;;;;;;59.33;35.10;;;24.10;92.10;;;;;;5060345;28;20459;-72
2021/04/01 12:12:15;;;;;;;55.30;36.77;;;24.40;91.70;;;;;;5055102;28;20494;-72
2021/04/01 12:14:44;;;;;;;60.50;36.40;;;24.40;91.60;;;;;;5059321;28;20462;-72
2021/04/01 12:17:10;;;;;;;59.57;36.30;;;24.50;92.10;;;;;;5060682;28;20541;-72
2021/04/01 12:19:36;;;;;;;68.03;38.13;;;24.00;91.40;;;;;;5058916;28;20474;-72
2021/04/01 12:22:08;;;;;;;55.10;34.37;;;23.50;91.00;;;;;;5059040;28;20981;-72
2021/04/01 12:24:35;;;;;;;69.40;37.70;;;23.20;91.70;;;;;;5049800;28;21268;-72
2021/04/01 12:27:02;;;;;;;61.50;36.60;;;23.50;92.10;;;;;;5054272;28;20830;-72
2021/04/01 12:29:28;;;;;;;64.13;38.50;;;23.60;92.00;;;;;;5054474;28;20487;-72
2021/04/01 12:31:56;;;;;;;59.40;33.60;;;24.00;90.50;;;;;;5058085;28;20510;-72
2021/04/01 12:34:23;;;;;;;51.60;34.20;;;23.80;88.70;;;;;;5055201;28;20455;-72
2021/04/01 12:36:50;;;;;;;58.67;33.93;;;23.70;89.20;;;;;;5057672;28;20970;-72
2021/04/01 12:39:28;;;;;;;64.83;36.17;;;23.70;87.90;;;;;;5058349;28;20516;-72
2021/04/01 12:41:55;;;;;;;61.63;38.70;;;23.60;88.20;;;;;;5057094;28;20486;-72
2021/04/01 12:44:21;;;;;;;67.60;38.80;;;23.60;90.40;;;;;;5049655;28;20502;-72
2021/04/01 12:46:48;;;;;;;61.00;39.80;;;23.70;91.00;;;;;;5055327;28;20493;-72
2021/04/01 12:49:16;;;;;;;60.93;42.13;;;23.50;91.60;;;;;;5059541;28;20470;-72
2021/04/01 12:51:46;;;;;;;65.80;40.40;;;23.90;92.30;;;;;;5054406;28;20451;-72
2021/04/01 12:54:15;;;;;;;71.10;42.30;;;24.00;92.50;;;;;;5055868;28;20459;-72
2021/04/01 12:56:45;;;;;;;64.13;39.43;;;23.70;91.90;;;;;;5054516;28;20460;-72
2021/04/01 12:59:18;;;;;;;60.03;40.57;;;23.60;92.40;;;;;;5055506;28;20465;-72
2021/04/01 13:01:48;;;;;;;63.30;41.37;;;23.00;92.50;;;;;;5059801;28;20544;-72
2021/04/01 13:04:20;;;;;;;73.83;43.00;;;23.30;92.60;;;;;;5053431;28;20460;-72
2021/04/01 13:06:56;;;;;;;67.73;46.47;;;23.30;93.30;;;;;;5055466;28;20463;-72
2021/04/01 13:09:32;;;;;;;68.87;43.27;;;23.00;93.30;;;;;;5058898;28;20518;-72
2021/04/01 13:12:09;;;;;;;65.47;43.83;;;22.70;93.20;;;;;;5063223;28;20582;-72
2021/04/01 13:14:37;;;;;;;74.57;49.20;;;22.40;94.50;;;;;;5055122;28;20514;-72
2021/04/01 13:17:04;;;;;;;80.57;50.83;;;22.50;94.60;;;;;;5060261;28;20990;-72
2021/04/01 13:19:32;;;;;;;75.40;49.40;;;23.00;94.30;;;;;;5059890;28;20463;-72
2021/04/01 13:22:08;;;;;;;93.77;54.43;;;22.80;94.20;;;;;;5057286;28;20806;-72
2021/04/01 13:24:43;;;;;;;72.53;48.70;;;22.50;94.60;;;;;;5055257;28;20483;-72
2021/04/01 13:27:11;;;;;;;92.63;56.63;;;22.50;94.00;;;;;;5052874;28;20463;-72
2021/04/01 13:29:42;;;;;;;83.73;55.80;;;22.10;94.80;;;;;;5060037;28;20479;-72
2021/04/01 13:32:13;;;;;;;82.27;49.03;;;21.60;95.30;;;;;;5056353;28;20455;-72
2021/04/01 13:34:43;;;;;;;84.20;53.47;;;21.70;94.70;;;;;;5056533;28;20468;-72